Current Conditions
Snow
Conditions



Pressure
1011.92 (hPa) - 29.88 (inHG)
Visibility

1.0 (km) - 0.6 (miles)
Temperature
0  °C
Temperature
-1  °C
Dewpoint
93  %
 Humidity
Wind Speed
2.2  m/s
5  mph
8  km/h
4  kts
Wind Direction
N
45°
E
90°
135°
S
180°
225°
W
270°
315°
 350°

Due North
Airport Data
EDDC
Dresden Airport
Metar :EDDC 060650Z 35004KT 320V030 1500 -SN BR BKN002 M00/M01 Q1012 NOSIG
Mon 6th December 07:50 am
Raw Metar Info
Raw METAR is the most common format in the world for the transmission of observational weather data. It is highly standardized through the International Civil Aviation Organization (ICAO), which allows it to be understood throughout most of the world.
API Info
Data Provided by
https://www.checkwx.com/weather/EDDC

Aviation Weather providing METAR, TAF, AIRMET, SIGMET and OUTLOOK Weather Reports
© Info
CSS/SVG/PHP scripts were developed by weather34.com for use in the weather34 template © 2015-2021

Guide Info provided by Metar-Wikipedia